Terminal Aerodrome Forecast
Issued by NWS Blacksburg, VA

Current Version | Previous Version | Graphics & Text | Print | Product List | Glossary On
Versions: 1 2 3 4 5 6 7 8 9 10 11 12 13 14 15 16 17 18 19 20 21 22 23 24 25 26 27 28 29 30 31 32 33 34 35 36 37 38 39 40
000
FTUS41 KRNK 291931 AAA
TAFBLF
TAF AMD
KBLF 291931Z 2920/3018 00000KT P6SM SCT015 BKN040
      TEMPO 2921/2922 4SM -SHRA BKN015
     FM292200 VRB04KT P6SM VCTS BKN035CB
     FM300000 VRB03KT P6SM SCT040 BKN250
     FM300800 26004KT P6SM BKN050
     FM301400 28005KT 4SM -SHRA BR OVC035=

USA.gov is the U.S. government's official web portal to all federal, state and local government web resources and services.